sensor_id;sensor_type;location;lat;lon;timestamp;temperature;humidity
15103;DHT22;7652;53.584;9.998;2023-09-19T00:03:08;16.90;99.90
15103;DHT22;7652;53.584;9.998;2023-09-19T00:06:32;16.90;99.90
15103;DHT22;7652;53.584;9.998;2023-09-19T00:09:54;16.90;99.90
15103;DHT22;7652;53.584;9.998;2023-09-19T00:13:15;16.90;99.90
15103;DHT22;7652;53.584;9.998;2023-09-19T00:16:37;16.90;99.90
15103;DHT22;7652;53.584;9.998;2023-09-19T00:20:00;16.90;99.90
15103;DHT22;7652;53.584;9.998;2023-09-19T00:23:27;16.90;99.90
15103;DHT22;7652;53.584;9.998;2023-09-19T00:26:49;16.90;99.90
15103;DHT22;7652;53.584;9.998;2023-09-19T00:30:12;16.90;99.90
15103;DHT22;7652;53.584;9.998;2023-09-19T00:33:36;16.90;99.90
15103;DHT22;7652;53.584;9.998;2023-09-19T00:36:59;16.90;99.90
15103;DHT22;7652;53.584;9.998;2023-09-19T00:40:21;16.90;99.90
15103;DHT22;7652;53.584;9.998;2023-09-19T00:43:42;16.90;99.90
15103;DHT22;7652;53.584;9.998;2023-09-19T00:47:03;16.90;99.90
15103;DHT22;7652;53.584;9.998;2023-09-19T00:50:27;16.90;99.90
15103;DHT22;7652;53.584;9.998;2023-09-19T00:53:51;16.90;99.90
15103;DHT22;7652;53.584;9.998;2023-09-19T00:57:13;16.90;99.90
15103;DHT22;7652;53.584;9.998;2023-09-19T01:00:35;16.90;99.90
15103;DHT22;7652;53.584;9.998;2023-09-19T01:03:56;16.90;99.90
15103;DHT22;7652;53.584;9.998;2023-09-19T01:07:18;16.90;99.90
15103;DHT22;7652;53.584;9.998;2023-09-19T01:10:46;17.00;99.90
15103;DHT22;7652;53.584;9.998;2023-09-19T01:14:22;17.00;99.90
15103;DHT22;7652;53.584;9.998;2023-09-19T01:17:55;16.90;99.90
15103;DHT22;7652;53.584;9.998;2023-09-19T01:21:26;17.00;99.90
15103;DHT22;7652;53.584;9.998;2023-09-19T01:25:28;17.00;99.90
15103;DHT22;7652;53.584;9.998;2023-09-19T01:29:07;17.00;99.90
15103;DHT22;7652;53.584;9.998;2023-09-19T01:32:36;17.00;99.90
15103;DHT22;7652;53.584;9.998;2023-09-19T01:35:59;17.00;99.90
15103;DHT22;7652;53.584;9.998;2023-09-19T01:39:20;17.00;99.90
15103;DHT22;7652;53.584;9.998;2023-09-19T01:42:45;17.20;99.90
15103;DHT22;7652;53.584;9.998;2023-09-19T01:46:13;17.20;99.90
15103;DHT22;7652;53.584;9.998;2023-09-19T01:49:44;17.20;99.90
15103;DHT22;7652;53.584;9.998;2023-09-19T01:53:15;17.20;99.90
15103;DHT22;7652;53.584;9.998;2023-09-19T01:56:45;17.20;99.90
15103;DHT22;7652;53.584;9.998;2023-09-19T02:00:10;17.20;99.90
15103;DHT22;7652;53.584;9.998;2023-09-19T02:03:35;17.20;99.90
15103;DHT22;7652;53.584;9.998;2023-09-19T02:06:58;17.30;99.90
15103;DHT22;7652;53.584;9.998;2023-09-19T02:10:21;17.50;99.90
15103;DHT22;7652;53.584;9.998;2023-09-19T02:13:43;17.50;99.90
15103;DHT22;7652;53.584;9.998;2023-09-19T02:17:05;17.60;99.90
15103;DHT22;7652;53.584;9.998;2023-09-19T02:20:29;17.60;99.90
15103;DHT22;7652;53.584;9.998;2023-09-19T02:23:54;17.60;99.90
15103;DHT22;7652;53.584;9.998;2023-09-19T02:27:16;17.60;99.90
15103;DHT22;7652;53.584;9.998;2023-09-19T02:30:38;17.60;99.90
15103;DHT22;7652;53.584;9.998;2023-09-19T02:34:00;17.50;99.90
15103;DHT22;7652;53.584;9.998;2023-09-19T02:37:22;17.40;99.90
15103;DHT22;7652;53.584;9.998;2023-09-19T02:40:44;17.40;99.90
15103;DHT22;7652;53.584;9.998;2023-09-19T02:44:06;17.40;99.90
15103;DHT22;7652;53.584;9.998;2023-09-19T02:47:28;17.40;99.90
15103;DHT22;7652;53.584;9.998;2023-09-19T02:50:51;17.50;99.90
15103;DHT22;7652;53.584;9.998;2023-09-19T02:54:13;17.50;99.90
15103;DHT22;7652;53.584;9.998;2023-09-19T02:57:37;17.40;99.90
15103;DHT22;7652;53.584;9.998;2023-09-19T03:01:08;17.40;99.90
15103;DHT22;7652;53.584;9.998;2023-09-19T03:04:29;17.50;99.90
15103;DHT22;7652;53.584;9.998;2023-09-19T03:07:51;17.40;99.90
15103;DHT22;7652;53.584;9.998;2023-09-19T03:11:13;17.50;99.90
15103;DHT22;7652;53.584;9.998;2023-09-19T03:14:36;17.50;99.90
15103;DHT22;7652;53.584;9.998;2023-09-19T03:17:58;17.50;99.90
15103;DHT22;7652;53.584;9.998;2023-09-19T03:21:20;17.50;99.90
15103;DHT22;7652;53.584;9.998;2023-09-19T03:24:42;17.50;99.90
15103;DHT22;7652;53.584;9.998;2023-09-19T03:28:05;17.40;99.90
15103;DHT22;7652;53.584;9.998;2023-09-19T03:31:28;17.40;99.90
15103;DHT22;7652;53.584;9.998;2023-09-19T03:34:51;17.40;99.90
15103;DHT22;7652;53.584;9.998;2023-09-19T03:38:12;17.40;99.90
15103;DHT22;7652;53.584;9.998;2023-09-19T03:41:33;17.40;99.90
15103;DHT22;7652;53.584;9.998;2023-09-19T03:44:56;17.40;99.90
15103;DHT22;7652;53.584;9.998;2023-09-19T03:48:19;17.30;99.90
15103;DHT22;7652;53.584;9.998;2023-09-19T03:51:41;17.30;99.90
15103;DHT22;7652;53.584;9.998;2023-09-19T03:55:03;17.30;99.90
15103;DHT22;7652;53.584;9.998;2023-09-19T03:58:26;17.20;99.90
15103;DHT22;7652;53.584;9.998;2023-09-19T04:01:48;17.20;99.90
15103;DHT22;7652;53.584;9.998;2023-09-19T04:05:12;17.20;99.90
15103;DHT22;7652;53.584;9.998;2023-09-19T04:08:33;17.10;99.90
15103;DHT22;7652;53.584;9.998;2023-09-19T04:11:55;17.00;99.90
15103;DHT22;7652;53.584;9.998;2023-09-19T04:15:16;17.00;99.90
15103;DHT22;7652;53.584;9.998;2023-09-19T04:18:38;16.90;99.90
15103;DHT22;7652;53.584;9.998;2023-09-19T04:22:01;16.80;99.90
15103;DHT22;7652;53.584;9.998;2023-09-19T04:25:23;16.80;99.90
15103;DHT22;7652;53.584;9.998;2023-09-19T04:28:44;16.70;99.90
15103;DHT22;7652;53.584;9.998;2023-09-19T04:32:06;16.50;99.90
15103;DHT22;7652;53.584;9.998;2023-09-19T04:35:27;16.30;99.90
15103;DHT22;7652;53.584;9.998;2023-09-19T04:38:50;16.20;99.90
15103;DHT22;7652;53.584;9.998;2023-09-19T04:42:14;16.10;99.90
15103;DHT22;7652;53.584;9.998;2023-09-19T04:45:35;16.10;99.90
15103;DHT22;7652;53.584;9.998;2023-09-19T04:48:57;16.00;99.90
15103;DHT22;7652;53.584;9.998;2023-09-19T04:52:19;16.00;99.90
15103;DHT22;7652;53.584;9.998;2023-09-19T04:55:42;15.90;99.90
15103;DHT22;7652;53.584;9.998;2023-09-19T04:59:03;15.90;99.90
15103;DHT22;7652;53.584;9.998;2023-09-19T05:02:25;15.80;99.90
15103;DHT22;7652;53.584;9.998;2023-09-19T05:05:47;15.80;99.90
15103;DHT22;7652;53.584;9.998;2023-09-19T05:09:08;15.80;99.90
15103;DHT22;7652;53.584;9.998;2023-09-19T05:12:32;15.70;99.90
15103;DHT22;7652;53.584;9.998;2023-09-19T05:15:59;15.70;99.90
15103;DHT22;7652;53.584;9.998;2023-09-19T05:19:22;15.60;99.90
15103;DHT22;7652;53.584;9.998;2023-09-19T05:22:44;15.70;99.90
15103;DHT22;7652;53.584;9.998;2023-09-19T05:26:06;15.60;99.90
15103;DHT22;7652;53.584;9.998;2023-09-19T05:29:29;15.60;99.90
15103;DHT22;7652;53.584;9.998;2023-09-19T05:32:51;15.60;99.90
15103;DHT22;7652;53.584;9.998;2023-09-19T05:36:12;15.60;99.90
15103;DHT22;7652;53.584;9.998;2023-09-19T05:39:37;15.50;99.90
15103;DHT22;7652;53.584;9.998;2023-09-19T05:42:58;15.50;99.90
15103;DHT22;7652;53.584;9.998;2023-09-19T05:46:21;15.60;99.90
15103;DHT22;7652;53.584;9.998;2023-09-19T05:49:43;15.60;99.90
15103;DHT22;7652;53.584;9.998;2023-09-19T05:53:04;15.50;99.90
15103;DHT22;7652;53.584;9.998;2023-09-19T05:56:26;15.60;99.90
15103;DHT22;7652;53.584;9.998;2023-09-19T05:59:48;15.60;99.90
15103;DHT22;7652;53.584;9.998;2023-09-19T06:03:12;15.70;99.90
15103;DHT22;7652;53.584;9.998;2023-09-19T06:06:35;15.70;99.90
15103;DHT22;7652;53.584;9.998;2023-09-19T06:09:59;15.80;99.90
15103;DHT22;7652;53.584;9.998;2023-09-19T06:13:20;15.90;99.90
15103;DHT22;7652;53.584;9.998;2023-09-19T06:16:42;15.90;99.90
15103;DHT22;7652;53.584;9.998;2023-09-19T06:20:07;16.00;99.90
15103;DHT22;7652;53.584;9.998;2023-09-19T06:23:33;16.00;99.90
15103;DHT22;7652;53.584;9.998;2023-09-19T06:26:55;16.10;99.90
15103;DHT22;7652;53.584;9.998;2023-09-19T06:30:17;16.20;99.90
15103;DHT22;7652;53.584;9.998;2023-09-19T06:33:38;16.20;99.90
15103;DHT22;7652;53.584;9.998;2023-09-19T06:37:02;16.20;99.90
15103;DHT22;7652;53.584;9.998;2023-09-19T06:40:24;16.20;99.90
15103;DHT22;7652;53.584;9.998;2023-09-19T06:43:46;16.20;99.90
15103;DHT22;7652;53.584;9.998;2023-09-19T06:47:08;16.20;99.90
15103;DHT22;7652;53.584;9.998;2023-09-19T06:50:30;16.30;99.90
15103;DHT22;7652;53.584;9.998;2023-09-19T06:53:54;16.40;99.90
15103;DHT22;7652;53.584;9.998;2023-09-19T06:57:17;16.40;99.90
15103;DHT22;7652;53.584;9.998;2023-09-19T07:00:39;16.50;99.90
15103;DHT22;7652;53.584;9.998;2023-09-19T07:04:00;16.40;99.90
15103;DHT22;7652;53.584;9.998;2023-09-19T07:07:22;16.40;99.90
15103;DHT22;7652;53.584;9.998;2023-09-19T07:10:44;16.50;99.90
15103;DHT22;7652;53.584;9.998;2023-09-19T07:14:09;16.50;99.90
15103;DHT22;7652;53.584;9.998;2023-09-19T07:17:32;16.60;99.90
15103;DHT22;7652;53.584;9.998;2023-09-19T07:20:57;16.60;99.90
15103;DHT22;7652;53.584;9.998;2023-09-19T07:24:21;16.70;99.90
15103;DHT22;7652;53.584;9.998;2023-09-19T07:27:45;16.70;99.90
15103;DHT22;7652;53.584;9.998;2023-09-19T07:31:07;16.70;99.90
15103;DHT22;7652;53.584;9.998;2023-09-19T07:34:30;16.80;99.90
15103;DHT22;7652;53.584;9.998;2023-09-19T07:37:52;16.80;99.90
15103;DHT22;7652;53.584;9.998;2023-09-19T07:41:14;16.80;99.90
15103;DHT22;7652;53.584;9.998;2023-09-19T07:44:37;16.80;99.90
15103;DHT22;7652;53.584;9.998;2023-09-19T07:47:58;16.80;99.90
15103;DHT22;7652;53.584;9.998;2023-09-19T07:51:22;16.80;99.90
15103;DHT22;7652;53.584;9.998;2023-09-19T07:54:44;16.80;99.90
15103;DHT22;7652;53.584;9.998;2023-09-19T07:58:05;16.70;99.90
15103;DHT22;7652;53.584;9.998;2023-09-19T08:01:29;16.50;99.90
15103;DHT22;7652;53.584;9.998;2023-09-19T08:04:50;16.20;99.90
15103;DHT22;7652;53.584;9.998;2023-09-19T08:08:13;16.00;99.90
15103;DHT22;7652;53.584;9.998;2023-09-19T08:11:35;15.80;99.90
15103;DHT22;7652;53.584;9.998;2023-09-19T08:14:57;15.70;99.90
15103;DHT22;7652;53.584;9.998;2023-09-19T08:18:20;15.60;99.90
15103;DHT22;7652;53.584;9.998;2023-09-19T08:21:43;15.50;99.90
15103;DHT22;7652;53.584;9.998;2023-09-19T08:25:07;15.60;99.90
15103;DHT22;7652;53.584;9.998;2023-09-19T08:28:28;15.70;99.90
15103;DHT22;7652;53.584;9.998;2023-09-19T08:31:50;15.80;99.90
15103;DHT22;7652;53.584;9.998;2023-09-19T08:35:13;15.90;99.90
15103;DHT22;7652;53.584;9.998;2023-09-19T08:38:35;16.10;99.90
15103;DHT22;7652;53.584;9.998;2023-09-19T08:41:57;16.10;99.90
15103;DHT22;7652;53.584;9.998;2023-09-19T08:45:20;16.20;99.90
15103;DHT22;7652;53.584;9.998;2023-09-19T08:48:46;16.30;99.90
15103;DHT22;7652;53.584;9.998;2023-09-19T08:52:20;16.50;99.90
15103;DHT22;7652;53.584;9.998;2023-09-19T08:55:44;16.50;99.90
15103;DHT22;7652;53.584;9.998;2023-09-19T08:59:08;16.50;99.90
15103;DHT22;7652;53.584;9.998;2023-09-19T09:02:31;16.60;99.90
15103;DHT22;7652;53.584;9.998;2023-09-19T09:05:55;16.70;99.90
15103;DHT22;7652;53.584;9.998;2023-09-19T09:09:18;16.70;99.90
15103;DHT22;7652;53.584;9.998;2023-09-19T09:12:40;16.80;99.90
15103;DHT22;7652;53.584;9.998;2023-09-19T09:16:04;16.90;99.90
15103;DHT22;7652;53.584;9.998;2023-09-19T09:19:25;17.00;99.90
15103;DHT22;7652;53.584;9.998;2023-09-19T09:22:53;17.10;99.90
15103;DHT22;7652;53.584;9.998;2023-09-19T09:26:17;17.10;99.90
15103;DHT22;7652;53.584;9.998;2023-09-19T09:29:42;17.20;99.90
15103;DHT22;7652;53.584;9.998;2023-09-19T09:33:08;17.30;99.90
15103;DHT22;7652;53.584;9.998;2023-09-19T09:36:35;17.40;99.90
15103;DHT22;7652;53.584;9.998;2023-09-19T09:40:00;17.50;99.90
15103;DHT22;7652;53.584;9.998;2023-09-19T09:43:41;17.60;99.90
15103;DHT22;7652;53.584;9.998;2023-09-19T09:47:06;17.80;99.90
15103;DHT22;7652;53.584;9.998;2023-09-19T09:50:47;17.90;99.90
15103;DHT22;7652;53.584;9.998;2023-09-19T09:54:18;18.00;99.90
15103;DHT22;7652;53.584;9.998;2023-09-19T09:57:40;18.10;99.90
15103;DHT22;7652;53.584;9.998;2023-09-19T10:01:06;18.20;99.90
15103;DHT22;7652;53.584;9.998;2023-09-19T10:04:31;18.30;99.90
15103;DHT22;7652;53.584;9.998;2023-09-19T10:08:10;18.40;99.90
15103;DHT22;7652;53.584;9.998;2023-09-19T10:11:34;18.50;99.90
15103;DHT22;7652;53.584;9.998;2023-09-19T10:15:00;18.60;99.90
15103;DHT22;7652;53.584;9.998;2023-09-19T10:18:26;18.70;99.90
15103;DHT22;7652;53.584;9.998;2023-09-19T10:21:48;18.80;99.90
15103;DHT22;7652;53.584;9.998;2023-09-19T10:25:11;18.90;99.90
15103;DHT22;7652;53.584;9.998;2023-09-19T10:28:34;18.90;99.90
15103;DHT22;7652;53.584;9.998;2023-09-19T10:31:57;19.00;99.90
15103;DHT22;7652;53.584;9.998;2023-09-19T10:35:21;19.00;99.90
15103;DHT22;7652;53.584;9.998;2023-09-19T10:38:45;19.00;99.90
15103;DHT22;7652;53.584;9.998;2023-09-19T10:42:11;19.00;99.90
15103;DHT22;7652;53.584;9.998;2023-09-19T10:45:39;19.20;99.90
15103;DHT22;7652;53.584;9.998;2023-09-19T10:49:02;19.20;99.90
15103;DHT22;7652;53.584;9.998;2023-09-19T10:52:26;19.30;99.90
15103;DHT22;7652;53.584;9.998;2023-09-19T10:55:51;19.40;99.90
15103;DHT22;7652;53.584;9.998;2023-09-19T10:59:15;19.50;99.90
15103;DHT22;7652;53.584;9.998;2023-09-19T11:02:39;19.40;99.90
15103;DHT22;7652;53.584;9.998;2023-09-19T11:06:08;19.40;99.90
15103;DHT22;7652;53.584;9.998;2023-09-19T11:09:49;19.50;99.90
15103;DHT22;7652;53.584;9.998;2023-09-19T11:13:26;19.50;99.90
15103;DHT22;7652;53.584;9.998;2023-09-19T11:21:41;19.30;99.90
15103;DHT22;7652;53.584;9.998;2023-09-19T11:25:42;19.20;99.90
15103;DHT22;7652;53.584;9.998;2023-09-19T11:29:26;19.30;99.90
15103;DHT22;7652;53.584;9.998;2023-09-19T11:33:16;19.80;99.90
15103;DHT22;7652;53.584;9.998;2023-09-19T11:36:41;20.40;99.90
15103;DHT22;7652;53.584;9.998;2023-09-19T11:40:06;20.60;99.90
15103;DHT22;7652;53.584;9.998;2023-09-19T11:43:37;20.50;99.90
15103;DHT22;7652;53.584;9.998;2023-09-19T11:47:01;20.60;99.90
15103;DHT22;7652;53.584;9.998;2023-09-19T11:50:24;20.50;99.90
15103;DHT22;7652;53.584;9.998;2023-09-19T11:53:46;20.50;99.90
15103;DHT22;7652;53.584;9.998;2023-09-19T11:57:11;20.40;99.90
15103;DHT22;7652;53.584;9.998;2023-09-19T12:00:35;20.60;99.90
15103;DHT22;7652;53.584;9.998;2023-09-19T12:04:01;20.80;99.90
15103;DHT22;7652;53.584;9.998;2023-09-19T12:07:25;21.30;99.90
15103;DHT22;7652;53.584;9.998;2023-09-19T12:10:48;21.20;99.90
15103;DHT22;7652;53.584;9.998;2023-09-19T12:14:10;21.00;99.90
15103;DHT22;7652;53.584;9.998;2023-09-19T12:17:38;21.10;99.90
15103;DHT22;7652;53.584;9.998;2023-09-19T12:21:01;21.10;99.90
15103;DHT22;7652;53.584;9.998;2023-09-19T12:24:26;21.30;99.90
15103;DHT22;7652;53.584;9.998;2023-09-19T12:27:50;21.50;99.90
15103;DHT22;7652;53.584;9.998;2023-09-19T12:31:13;21.40;99.90
15103;DHT22;7652;53.584;9.998;2023-09-19T12:34:39;21.60;99.90
15103;DHT22;7652;53.584;9.998;2023-09-19T12:38:03;22.10;99.90
15103;DHT22;7652;53.584;9.998;2023-09-19T12:41:26;22.30;99.90
15103;DHT22;7652;53.584;9.998;2023-09-19T12:44:49;22.10;99.90
15103;DHT22;7652;53.584;9.998;2023-09-19T12:48:19;21.90;99.90
15103;DHT22;7652;53.584;9.998;2023-09-19T12:51:54;21.50;99.90
15103;DHT22;7652;53.584;9.998;2023-09-19T12:55:26;21.30;99.90
15103;DHT22;7652;53.584;9.998;2023-09-19T12:58:55;21.50;99.90
15103;DHT22;7652;53.584;9.998;2023-09-19T13:02:17;21.30;99.90
15103;DHT22;7652;53.584;9.998;2023-09-19T13:06:02;21.00;99.90
15103;DHT22;7652;53.584;9.998;2023-09-19T13:09:26;20.80;99.90
15103;DHT22;7652;53.584;9.998;2023-09-19T13:12:55;20.90;99.90
15103;DHT22;7652;53.584;9.998;2023-09-19T13:16:17;21.60;99.90
15103;DHT22;7652;53.584;9.998;2023-09-19T13:19:44;22.60;99.90
15103;DHT22;7652;53.584;9.998;2023-09-19T13:23:26;23.40;97.90
15103;DHT22;7652;53.584;9.998;2023-09-19T13:26:49;23.70;95.60
15103;DHT22;7652;53.584;9.998;2023-09-19T13:30:11;23.20;96.40
15103;DHT22;7652;53.584;9.998;2023-09-19T13:33:33;22.80;97.50
15103;DHT22;7652;53.584;9.998;2023-09-19T13:36:55;22.40;97.90
15103;DHT22;7652;53.584;9.998;2023-09-19T13:40:18;22.20;99.90
15103;DHT22;7652;53.584;9.998;2023-09-19T13:43:41;22.00;99.80
15103;DHT22;7652;53.584;9.998;2023-09-19T13:47:07;21.80;99.90
15103;DHT22;7652;53.584;9.998;2023-09-19T13:50:30;21.60;99.90
15103;DHT22;7652;53.584;9.998;2023-09-19T13:53:52;21.40;99.90
15103;DHT22;7652;53.584;9.998;2023-09-19T13:57:14;21.30;99.90
15103;DHT22;7652;53.584;9.998;2023-09-19T14:00:38;21.30;99.90
15103;DHT22;7652;53.584;9.998;2023-09-19T14:03:59;21.30;99.90
15103;DHT22;7652;53.584;9.998;2023-09-19T14:07:22;21.20;99.90
15103;DHT22;7652;53.584;9.998;2023-09-19T14:10:44;21.00;99.90
15103;DHT22;7652;53.584;9.998;2023-09-19T14:14:05;20.80;99.90
15103;DHT22;7652;53.584;9.998;2023-09-19T14:17:28;20.70;99.90
15103;DHT22;7652;53.584;9.998;2023-09-19T14:20:50;20.70;99.90
15103;DHT22;7652;53.584;9.998;2023-09-19T14:24:16;20.70;99.90
15103;DHT22;7652;53.584;9.998;2023-09-19T14:27:38;20.70;99.90
15103;DHT22;7652;53.584;9.998;2023-09-19T14:31:04;20.60;99.90
15103;DHT22;7652;53.584;9.998;2023-09-19T14:34:27;20.60;99.90
15103;DHT22;7652;53.584;9.998;2023-09-19T14:37:49;20.60;99.90
15103;DHT22;7652;53.584;9.998;2023-09-19T14:41:10;20.60;99.90
15103;DHT22;7652;53.584;9.998;2023-09-19T14:44:33;20.60;99.90
15103;DHT22;7652;53.584;9.998;2023-09-19T14:47:55;20.50;99.90
15103;DHT22;7652;53.584;9.998;2023-09-19T14:51:19;20.50;99.90
15103;DHT22;7652;53.584;9.998;2023-09-19T14:54:40;20.40;99.90
15103;DHT22;7652;53.584;9.998;2023-09-19T14:58:02;20.40;99.90
15103;DHT22;7652;53.584;9.998;2023-09-19T15:01:24;20.30;99.90
15103;DHT22;7652;53.584;9.998;2023-09-19T15:04:46;20.20;99.90
15103;DHT22;7652;53.584;9.998;2023-09-19T15:08:09;20.20;99.90
15103;DHT22;7652;53.584;9.998;2023-09-19T15:11:31;20.10;99.90
15103;DHT22;7652;53.584;9.998;2023-09-19T15:14:52;20.10;99.90
15103;DHT22;7652;53.584;9.998;2023-09-19T15:18:13;20.00;99.90
15103;DHT22;7652;53.584;9.998;2023-09-19T15:21:35;20.00;99.90
15103;DHT22;7652;53.584;9.998;2023-09-19T15:24:59;19.90;99.90
15103;DHT22;7652;53.584;9.998;2023-09-19T15:28:21;19.90;99.90
15103;DHT22;7652;53.584;9.998;2023-09-19T15:31:43;19.90;99.90
15103;DHT22;7652;53.584;9.998;2023-09-19T15:35:04;19.90;99.90
15103;DHT22;7652;53.584;9.998;2023-09-19T15:38:27;19.90;99.90
15103;DHT22;7652;53.584;9.998;2023-09-19T15:41:50;19.90;99.90
15103;DHT22;7652;53.584;9.998;2023-09-19T15:45:12;19.90;99.90
15103;DHT22;7652;53.584;9.998;2023-09-19T15:48:35;19.80;99.90
15103;DHT22;7652;53.584;9.998;2023-09-19T15:51:57;19.80;99.90
15103;DHT22;7652;53.584;9.998;2023-09-19T15:55:18;19.80;99.90
15103;DHT22;7652;53.584;9.998;2023-09-19T15:58:44;19.80;99.90
15103;DHT22;7652;53.584;9.998;2023-09-19T16:02:06;19.80;99.90
15103;DHT22;7652;53.584;9.998;2023-09-19T16:05:27;19.80;99.90
15103;DHT22;7652;53.584;9.998;2023-09-19T16:08:51;19.80;99.90
15103;DHT22;7652;53.584;9.998;2023-09-19T16:12:12;19.80;99.90
15103;DHT22;7652;53.584;9.998;2023-09-19T16:15:41;19.80;99.90
15103;DHT22;7652;53.584;9.998;2023-09-19T16:19:04;19.80;99.90
15103;DHT22;7652;53.584;9.998;2023-09-19T16:22:30;19.70;99.90
15103;DHT22;7652;53.584;9.998;2023-09-19T16:26:00;19.70;99.90
15103;DHT22;7652;53.584;9.998;2023-09-19T16:29:22;19.70;99.90
15103;DHT22;7652;53.584;9.998;2023-09-19T16:32:46;19.70;99.90
15103;DHT22;7652;53.584;9.998;2023-09-19T16:36:08;19.70;99.90
15103;DHT22;7652;53.584;9.998;2023-09-19T16:39:30;19.70;99.90
15103;DHT22;7652;53.584;9.998;2023-09-19T16:42:53;19.60;99.90
15103;DHT22;7652;53.584;9.998;2023-09-19T16:46:15;19.60;99.90
15103;DHT22;7652;53.584;9.998;2023-09-19T16:49:39;19.60;99.90
15103;DHT22;7652;53.584;9.998;2023-09-19T16:53:00;19.50;99.90
15103;DHT22;7652;53.584;9.998;2023-09-19T16:56:23;19.50;99.90
15103;DHT22;7652;53.584;9.998;2023-09-19T16:59:45;19.50;99.90
15103;DHT22;7652;53.584;9.998;2023-09-19T17:03:06;19.60;99.90
15103;DHT22;7652;53.584;9.998;2023-09-19T17:06:29;19.50;99.90
15103;DHT22;7652;53.584;9.998;2023-09-19T17:09:51;19.50;99.90
15103;DHT22;7652;53.584;9.998;2023-09-19T17:13:12;19.60;99.90
15103;DHT22;7652;53.584;9.998;2023-09-19T17:16:34;19.60;99.90
15103;DHT22;7652;53.584;9.998;2023-09-19T17:19:57;19.50;99.90
15103;DHT22;7652;53.584;9.998;2023-09-19T17:23:20;19.50;99.90
15103;DHT22;7652;53.584;9.998;2023-09-19T17:26:42;19.50;99.90
15103;DHT22;7652;53.584;9.998;2023-09-19T17:30:05;19.60;99.90
15103;DHT22;7652;53.584;9.998;2023-09-19T17:33:27;19.50;99.90
15103;DHT22;7652;53.584;9.998;2023-09-19T17:36:49;19.50;99.90
15103;DHT22;7652;53.584;9.998;2023-09-19T17:40:12;19.50;99.90
15103;DHT22;7652;53.584;9.998;2023-09-19T17:43:34;19.50;99.90
15103;DHT22;7652;53.584;9.998;2023-09-19T17:46:57;19.50;99.90
15103;DHT22;7652;53.584;9.998;2023-09-19T17:50:18;19.50;99.90
15103;DHT22;7652;53.584;9.998;2023-09-19T17:53:41;19.50;99.90
15103;DHT22;7652;53.584;9.998;2023-09-19T17:57:04;19.50;99.90
15103;DHT22;7652;53.584;9.998;2023-09-19T18:00:27;19.50;99.90
15103;DHT22;7652;53.584;9.998;2023-09-19T18:03:50;19.50;99.90
15103;DHT22;7652;53.584;9.998;2023-09-19T18:07:16;19.50;99.90
15103;DHT22;7652;53.584;9.998;2023-09-19T18:10:38;19.50;99.90
15103;DHT22;7652;53.584;9.998;2023-09-19T18:14:01;19.60;99.90
15103;DHT22;7652;53.584;9.998;2023-09-19T18:17:23;19.60;99.90
15103;DHT22;7652;53.584;9.998;2023-09-19T18:20:44;19.50;99.90
15103;DHT22;7652;53.584;9.998;2023-09-19T18:24:08;19.50;99.90
15103;DHT22;7652;53.584;9.998;2023-09-19T18:27:34;19.50;99.90
15103;DHT22;7652;53.584;9.998;2023-09-19T18:31:05;19.50;99.90
15103;DHT22;7652;53.584;9.998;2023-09-19T18:34:27;19.50;99.90
15103;DHT22;7652;53.584;9.998;2023-09-19T18:37:48;19.50;99.90
15103;DHT22;7652;53.584;9.998;2023-09-19T18:41:13;19.60;99.90
15103;DHT22;7652;53.584;9.998;2023-09-19T18:44:35;19.60;99.90
15103;DHT22;7652;53.584;9.998;2023-09-19T18:47:58;19.50;99.90
15103;DHT22;7652;53.584;9.998;2023-09-19T18:51:22;19.50;99.90
15103;DHT22;7652;53.584;9.998;2023-09-19T18:54:45;19.50;99.90
15103;DHT22;7652;53.584;9.998;2023-09-19T18:58:06;19.50;99.90
15103;DHT22;7652;53.584;9.998;2023-09-19T19:01:29;19.50;99.90
15103;DHT22;7652;53.584;9.998;2023-09-19T19:04:52;19.50;99.90
15103;DHT22;7652;53.584;9.998;2023-09-19T19:08:15;19.50;99.90
15103;DHT22;7652;53.584;9.998;2023-09-19T19:11:36;19.50;99.90
15103;DHT22;7652;53.584;9.998;2023-09-19T19:14:58;19.50;99.90
15103;DHT22;7652;53.584;9.998;2023-09-19T19:18:20;19.50;99.90
15103;DHT22;7652;53.584;9.998;2023-09-19T19:21:50;19.50;99.90
15103;DHT22;7652;53.584;9.998;2023-09-19T19:25:11;19.40;99.90
15103;DHT22;7652;53.584;9.998;2023-09-19T19:28:33;19.50;99.90
15103;DHT22;7652;53.584;9.998;2023-09-19T19:31:56;19.50;99.90
15103;DHT22;7652;53.584;9.998;2023-09-19T19:35:17;19.40;99.90
15103;DHT22;7652;53.584;9.998;2023-09-19T19:38:45;19.40;99.90
15103;DHT22;7652;53.584;9.998;2023-09-19T19:42:07;19.40;99.90
15103;DHT22;7652;53.584;9.998;2023-09-19T19:45:28;19.40;99.90
15103;DHT22;7652;53.584;9.998;2023-09-19T19:48:50;19.40;99.90
15103;DHT22;7652;53.584;9.998;2023-09-19T19:52:13;19.40;99.90
15103;DHT22;7652;53.584;9.998;2023-09-19T19:55:36;19.40;99.90
15103;DHT22;7652;53.584;9.998;2023-09-19T19:59:00;19.30;99.90
15103;DHT22;7652;53.584;9.998;2023-09-19T20:02:23;19.30;99.90
15103;DHT22;7652;53.584;9.998;2023-09-19T20:05:45;19.30;99.90
15103;DHT22;7652;53.584;9.998;2023-09-19T20:09:08;19.30;99.90
15103;DHT22;7652;53.584;9.998;2023-09-19T20:12:31;19.30;99.90
15103;DHT22;7652;53.584;9.998;2023-09-19T20:15:56;19.20;99.90
15103;DHT22;7652;53.584;9.998;2023-09-19T20:19:18;19.20;99.90
15103;DHT22;7652;53.584;9.998;2023-09-19T20:22:40;19.20;99.90
15103;DHT22;7652;53.584;9.998;2023-09-19T20:26:02;19.30;99.90
15103;DHT22;7652;53.584;9.998;2023-09-19T20:29:26;19.20;99.90
15103;DHT22;7652;53.584;9.998;2023-09-19T20:32:49;19.30;99.90
15103;DHT22;7652;53.584;9.998;2023-09-19T20:36:11;19.30;99.90
15103;DHT22;7652;53.584;9.998;2023-09-19T20:39:37;19.30;99.90
15103;DHT22;7652;53.584;9.998;2023-09-19T20:42:59;19.30;99.90
15103;DHT22;7652;53.584;9.998;2023-09-19T20:46:22;19.30;99.90
15103;DHT22;7652;53.584;9.998;2023-09-19T20:49:44;19.20;99.90
15103;DHT22;7652;53.584;9.998;2023-09-19T20:53:06;19.10;99.90
15103;DHT22;7652;53.584;9.998;2023-09-19T20:56:29;19.10;99.90
15103;DHT22;7652;53.584;9.998;2023-09-19T20:59:52;19.00;99.90
15103;DHT22;7652;53.584;9.998;2023-09-19T21:03:15;18.90;99.90
15103;DHT22;7652;53.584;9.998;2023-09-19T21:06:37;18.90;99.90
15103;DHT22;7652;53.584;9.998;2023-09-19T21:09:59;18.90;99.90
15103;DHT22;7652;53.584;9.998;2023-09-19T21:13:21;18.90;99.90
15103;DHT22;7652;53.584;9.998;2023-09-19T21:16:42;18.90;99.90
15103;DHT22;7652;53.584;9.998;2023-09-19T21:20:06;18.90;99.90
15103;DHT22;7652;53.584;9.998;2023-09-19T21:23:31;18.80;99.90
15103;DHT22;7652;53.584;9.998;2023-09-19T21:26:52;18.80;99.90
15103;DHT22;7652;53.584;9.998;2023-09-19T21:30:16;18.80;99.90
15103;DHT22;7652;53.584;9.998;2023-09-19T21:33:39;18.90;99.90
15103;DHT22;7652;53.584;9.998;2023-09-19T21:37:03;18.90;99.90
15103;DHT22;7652;53.584;9.998;2023-09-19T21:40:24;18.90;99.90
15103;DHT22;7652;53.584;9.998;2023-09-19T21:43:47;18.90;99.90
15103;DHT22;7652;53.584;9.998;2023-09-19T21:47:11;19.00;99.90
15103;DHT22;7652;53.584;9.998;2023-09-19T21:50:33;18.90;99.90
15103;DHT22;7652;53.584;9.998;2023-09-19T21:53:58;18.90;99.90